createdAt,value
2018-06-10T00:00:25.288Z,21.32
2018-06-10T00:01:25.299Z,21.35
2018-06-10T00:02:25.306Z,21.27
2018-06-10T00:03:25.315Z,21.47
2018-06-10T00:04:25.322Z,21.56
2018-06-10T00:05:25.331Z,21.43
2018-06-10T00:06:25.337Z,21.43
2018-06-10T00:07:25.344Z,21.35
2018-06-10T00:08:25.357Z,21.47
2018-06-10T00:09:25.359Z,21.44
2018-06-10T00:10:25.367Z,21.31
2018-06-10T00:11:25.376Z,21.28
2018-06-10T00:12:25.385Z,21.43
2018-06-10T00:13:25.389Z,21.29
2018-06-10T00:14:25.395Z,21.14
2018-06-10T00:15:25.410Z,21.19
2018-06-10T00:16:25.409Z,21.29
2018-06-10T00:17:25.422Z,21.25
2018-06-10T00:18:25.426Z,21.35
2018-06-10T00:19:25.434Z,21.34
2018-06-10T00:20:25.442Z,21.34
2018-06-10T00:21:25.448Z,21.06
2018-06-10T00:22:25.454Z,21.17
2018-06-10T00:23:25.462Z,21.14
2018-06-10T00:24:25.469Z,21.19
2018-06-10T00:25:25.484Z,21.31
2018-06-10T00:26:25.484Z,21.32
2018-06-10T00:27:25.495Z,21.17
2018-06-10T00:28:25.501Z,21.13
2018-06-10T00:29:25.507Z,21.25
2018-06-10T00:30:25.520Z,21.34
2018-06-10T00:31:25.523Z,21.34
2018-06-10T00:32:25.536Z,21.28
2018-06-10T00:33:25.541Z,21.29
2018-06-10T00:34:25.544Z,21.29
2018-06-10T00:35:25.562Z,21.25
2018-06-10T00:36:25.556Z,21.29
2018-06-10T00:37:25.565Z,21.28
2018-06-10T00:38:25.576Z,21.13
2018-06-10T00:39:25.583Z,21.12
2018-06-10T00:40:25.590Z,21.17
2018-06-10T00:41:25.601Z,21.17
2018-06-10T00:42:25.602Z,21.32
2018-06-10T00:43:25.611Z,21.24
2018-06-10T00:44:25.619Z,21.25
2018-06-10T00:45:25.628Z,21.24
2018-06-10T00:46:25.635Z,21.29
2018-06-10T00:47:25.640Z,21.04
2018-06-10T00:48:25.648Z,21.22
2018-06-10T00:49:25.655Z,21.07
2018-06-10T00:50:25.663Z,20.99
2018-06-10T00:51:25.668Z,20.94
2018-06-10T00:52:25.674Z,20.87
2018-06-10T00:53:25.687Z,21.09
2018-06-10T00:54:25.691Z,21.04
2018-06-10T00:55:25.704Z,20.99
2018-06-10T00:56:25.706Z,21.01
2018-06-10T00:57:25.714Z,21.07
2018-06-10T00:58:25.720Z,21.16
2018-06-10T00:59:25.734Z,21.13
2018-06-10T01:00:25.756Z,21.16
2018-06-10T01:01:25.741Z,21.07
2018-06-10T01:02:25.750Z,21.16
2018-06-10T01:03:25.757Z,21.03
2018-06-10T01:04:25.764Z,21.17
2018-06-10T01:05:25.769Z,21.22
2018-06-10T01:06:25.779Z,21.22
2018-06-10T01:07:25.786Z,21.04
2018-06-10T01:08:25.793Z,21.06
2018-06-10T01:09:25.801Z,21.04
2018-06-10T01:10:25.809Z,21.25
2018-06-10T01:11:25.811Z,21.34
2018-06-10T01:12:25.820Z,21.43
2018-06-10T01:13:25.828Z,21.32
2018-06-10T01:14:25.842Z,21.12
2018-06-10T01:15:25.844Z,21.24
2018-06-10T01:16:25.848Z,21.21
2018-06-10T01:17:25.856Z,21.03
2018-06-10T01:18:25.868Z,21.19
2018-06-10T01:19:25.876Z,21.21
2018-06-10T01:20:25.877Z,21.24
2018-06-10T01:21:25.888Z,21.37
2018-06-10T01:22:25.900Z,21.42
2018-06-10T01:23:25.902Z,21.47
2018-06-10T01:24:25.911Z,21.44
2018-06-10T01:25:25.919Z,21.34
2018-06-10T01:26:25.925Z,21.19
2018-06-10T01:27:25.930Z,21.35
2018-06-10T01:28:25.939Z,21.28
2018-06-10T01:29:25.944Z,21.28
2018-06-10T01:30:25.954Z,21.28
2018-06-10T01:31:25.964Z,21.46
2018-06-10T01:32:25.968Z,21.43
2018-06-10T01:33:25.975Z,21.27
2018-06-10T01:34:25.981Z,21.16
2018-06-10T01:35:25.989Z,21.27
2018-06-10T01:36:25.998Z,21.13
2018-06-10T01:37:26.004Z,21.09
2018-06-10T01:38:26.012Z,21.21
2018-06-10T01:39:26.017Z,21.09
2018-06-10T01:40:26.026Z,21.07
2018-06-10T01:41:26.037Z,21.17
2018-06-10T01:42:26.044Z,21.21
2018-06-10T01:43:26.048Z,21.03
2018-06-10T01:44:26.059Z,21.16
2018-06-10T01:45:26.061Z,21.09
2018-06-10T01:46:26.067Z,21.21
2018-06-10T01:47:26.078Z,20.99
2018-06-10T01:48:26.081Z,20.94
2018-06-10T01:49:26.091Z,20.84
2018-06-10T01:50:26.099Z,20.92
2018-06-10T01:51:26.105Z,20.99
2018-06-10T01:52:26.110Z,21.19
2018-06-10T01:53:26.118Z,21.19
2018-06-10T01:54:26.128Z,21.31
2018-06-10T01:55:26.143Z,21.19
2018-06-10T01:56:26.142Z,20.97
2018-06-10T01:57:26.155Z,21.06
2018-06-10T01:58:26.155Z,20.95
2018-06-10T01:59:26.163Z,21.01
2018-06-10T02:00:26.170Z,20.85
2018-06-10T02:01:26.177Z,20.85
2018-06-10T02:02:26.185Z,20.73
2018-06-10T02:03:26.189Z,20.85
2018-06-10T02:04:26.196Z,20.80
2018-06-10T02:05:26.208Z,20.88
2018-06-10T02:06:26.212Z,20.91
2018-06-10T02:07:26.221Z,20.94
2018-06-10T02:08:26.225Z,20.94
2018-06-10T02:09:26.235Z,21.04
2018-06-10T02:10:26.244Z,20.77
2018-06-10T02:11:26.248Z,20.76
2018-06-10T02:12:26.252Z,20.88
2018-06-10T02:13:26.261Z,20.87
2018-06-10T02:14:26.275Z,20.94
2018-06-10T02:15:26.276Z,20.98
2018-06-10T02:16:26.294Z,20.97
2018-06-10T02:17:26.288Z,20.89
2018-06-10T02:18:26.298Z,20.77
2018-06-10T02:19:26.318Z,20.69
2018-06-10T02:20:26.317Z,20.59
2018-06-10T02:21:26.318Z,20.73
2018-06-10T02:22:26.326Z,20.70
2018-06-10T02:23:26.336Z,20.70
2018-06-10T02:24:26.338Z,20.84
2018-06-10T02:25:26.346Z,21.03
2018-06-10T02:26:26.353Z,20.98
2018-06-10T02:27:26.361Z,20.94
2018-06-10T02:28:26.375Z,21.07
2018-06-10T02:29:26.378Z,21.03
2018-06-10T02:30:26.386Z,20.97
2018-06-10T02:31:26.394Z,20.87
2018-06-10T02:32:26.396Z,20.91
2018-06-10T02:33:26.403Z,20.74
2018-06-10T02:34:26.422Z,20.72
2018-06-10T02:35:26.421Z,20.70
2018-06-10T02:36:26.422Z,20.52
2018-06-10T02:37:26.437Z,20.69
2018-06-10T02:38:26.440Z,20.69
2018-06-10T02:39:26.451Z,20.84
2018-06-10T02:40:26.458Z,20.92
2018-06-10T02:41:26.461Z,20.95
2018-06-10T02:42:26.476Z,20.94
2018-06-10T02:43:26.477Z,20.84
2018-06-10T02:44:26.481Z,20.76
2018-06-10T02:45:26.489Z,20.77
2018-06-10T02:46:26.500Z,20.66
2018-06-10T02:47:26.501Z,20.57
2018-06-10T02:48:26.518Z,20.69
2018-06-10T02:49:26.516Z,20.67
2018-06-10T02:50:26.522Z,20.61
2018-06-10T02:51:26.530Z,20.55
2018-06-10T02:52:26.536Z,20.55
2018-06-10T02:53:26.546Z,20.55
2018-06-10T02:54:26.551Z,20.54
2018-06-10T02:55:26.574Z,20.51
2018-06-10T02:56:26.573Z,20.48
2018-06-10T02:57:26.576Z,20.55
2018-06-10T02:58:26.579Z,20.67
2018-06-10T02:59:26.588Z,20.67
2018-06-10T03:00:26.593Z,20.64
2018-06-10T03:01:26.604Z,20.64
2018-06-10T03:02:26.605Z,20.67
2018-06-10T03:03:26.617Z,20.73
2018-06-10T03:04:26.619Z,20.72
2018-06-10T03:05:26.630Z,20.87
2018-06-10T03:06:26.633Z,20.88
2018-06-10T03:07:26.642Z,20.70
2018-06-10T03:08:26.659Z,20.67
2018-06-10T03:09:26.656Z,20.61
2018-06-10T03:10:26.671Z,20.74
2018-06-10T03:11:26.668Z,20.72
2018-06-10T03:12:26.675Z,20.67
2018-06-10T03:13:26.684Z,20.67
2018-06-10T03:14:26.688Z,20.54
2018-06-10T03:15:26.696Z,20.54
2018-06-10T03:16:26.706Z,20.33
2018-06-10T03:17:26.711Z,20.48
2018-06-10T03:18:26.719Z,20.39
2018-06-10T03:19:26.735Z,20.43
2018-06-10T03:20:26.730Z,20.39
2018-06-10T03:21:26.747Z,20.41
2018-06-10T03:22:26.743Z,20.47
2018-06-10T03:23:26.755Z,20.47
2018-06-10T03:24:26.761Z,20.69
2018-06-10T03:25:26.772Z,20.57
2018-06-10T03:26:26.772Z,20.55
2018-06-10T03:27:26.780Z,20.33
2018-06-10T03:28:26.786Z,20.26
2018-06-10T03:29:26.793Z,20.33
2018-06-10T03:30:26.802Z,20.26
2018-06-10T03:31:26.804Z,20.32
2018-06-10T03:32:26.812Z,20.50
2018-06-10T03:33:26.819Z,20.64
2018-06-10T03:34:26.826Z,20.58
2018-06-10T03:35:26.841Z,20.36
2018-06-10T03:36:26.841Z,20.31
2018-06-10T03:37:26.849Z,20.58
2018-06-10T03:38:26.858Z,20.62
2018-06-10T03:39:26.861Z,20.57
2018-06-10T03:40:26.869Z,20.61
2018-06-10T03:41:26.874Z,20.61
2018-06-10T03:42:26.884Z,20.38
2018-06-10T03:43:26.893Z,20.33
2018-06-10T03:44:26.899Z,20.54
2018-06-10T03:45:26.901Z,20.58
2018-06-10T03:46:26.909Z,20.54
2018-06-10T03:47:26.919Z,20.54
2018-06-10T03:48:26.920Z,20.62
2018-06-10T03:49:26.935Z,20.32
2018-06-10T03:50:26.937Z,20.42
2018-06-10T03:51:26.943Z,20.51
2018-06-10T03:52:26.949Z,20.41
2018-06-10T03:53:26.954Z,20.50
2018-06-10T03:54:26.972Z,20.33
2018-06-10T03:55:26.969Z,20.64
2018-06-10T03:56:26.983Z,20.50
2018-06-10T03:57:26.981Z,20.48
2018-06-10T03:58:26.993Z,20.41
2018-06-10T03:59:26.995Z,20.32
2018-06-10T04:00:27.000Z,20.42
2018-06-10T04:01:27.010Z,20.41
2018-06-10T04:02:27.020Z,20.41
2018-06-10T04:03:27.024Z,20.48
2018-06-10T04:04:27.031Z,20.54
2018-06-10T04:05:27.037Z,20.51
2018-06-10T04:06:27.043Z,20.41
2018-06-10T04:07:27.052Z,20.42
2018-06-10T04:08:27.057Z,20.42
2018-06-10T04:09:27.065Z,20.23
2018-06-10T04:10:27.071Z,20.39
2018-06-10T04:11:27.091Z,20.41
2018-06-10T04:12:27.088Z,20.51
2018-06-10T04:13:27.091Z,20.54
2018-06-10T04:14:27.099Z,20.55
2018-06-10T04:15:27.110Z,20.55
2018-06-10T04:16:27.109Z,20.52
2018-06-10T04:17:27.121Z,20.43
2018-06-10T04:18:27.129Z,20.31
2018-06-10T04:19:27.132Z,20.36
2018-06-10T04:20:27.137Z,20.23
2018-06-10T04:21:27.146Z,20.24
2018-06-10T04:22:27.149Z,20.38
2018-06-10T04:23:27.160Z,20.41
2018-06-10T04:24:27.172Z,20.48
2018-06-10T04:25:27.174Z,20.38
2018-06-10T04:26:27.179Z,20.38
2018-06-10T04:27:27.185Z,20.61
2018-06-10T04:28:27.195Z,20.69
2018-06-10T04:29:27.200Z,20.66
2018-06-10T04:30:27.204Z,20.69
2018-06-10T04:31:27.215Z,20.67
2018-06-10T04:32:27.219Z,20.76
2018-06-10T04:33:27.226Z,20.72
2018-06-10T04:34:27.237Z,20.72
2018-06-10T04:35:27.250Z,20.62
2018-06-10T04:36:27.249Z,20.62
2018-06-10T04:37:27.252Z,20.64
2018-06-10T04:38:27.263Z,20.72
2018-06-10T04:39:27.271Z,20.66
2018-06-10T04:40:27.276Z,20.74
2018-06-10T04:41:27.281Z,20.76
2018-06-10T04:42:27.287Z,20.82
2018-06-10T04:43:27.299Z,20.92
2018-06-10T04:44:27.308Z,20.99
2018-06-10T04:45:27.319Z,20.92
2018-06-10T04:46:27.316Z,20.89
2018-06-10T04:47:27.329Z,20.80
2018-06-10T04:48:27.332Z,20.80
2018-06-10T04:49:27.338Z,20.80
2018-06-10T04:50:27.344Z,20.76
2018-06-10T04:51:27.356Z,20.84
2018-06-10T04:52:27.354Z,20.88
2018-06-10T04:53:27.367Z,20.91
2018-06-10T04:54:27.371Z,20.80
2018-06-10T04:55:27.381Z,20.79
2018-06-10T04:56:27.392Z,20.84
2018-06-10T04:57:27.392Z,20.88
2018-06-10T04:58:27.405Z,20.84
2018-06-10T04:59:27.406Z,20.95
2018-06-10T05:00:27.413Z,20.92
2018-06-10T05:01:27.422Z,20.99
2018-06-10T05:02:27.427Z,21.07
2018-06-10T05:03:27.435Z,21.06
2018-06-10T05:04:27.445Z,21.01
2018-06-10T05:05:27.448Z,21.14
2018-06-10T05:06:27.462Z,21.22
2018-06-10T05:07:27.463Z,21.10
2018-06-10T05:08:27.468Z,21.14
2018-06-10T05:09:27.476Z,21.21
2018-06-10T05:10:27.584Z,21.25
2018-06-10T05:11:27.501Z,21.17
2018-06-10T05:12:27.500Z,21.21
2018-06-10T05:13:27.502Z,21.22
2018-06-10T05:14:27.514Z,21.09
2018-06-10T05:15:27.519Z,21.12
2018-06-10T05:16:27.526Z,21.31
2018-06-10T05:17:27.531Z,21.31
2018-06-10T05:18:27.540Z,21.29
2018-06-10T05:19:27.552Z,21.35
2018-06-10T05:20:27.554Z,21.32
2018-06-10T05:21:27.561Z,21.37
2018-06-10T05:22:27.568Z,21.32
2018-06-10T05:23:27.578Z,21.43
2018-06-10T05:24:27.583Z,21.43
2018-06-10T05:25:27.594Z,21.29
2018-06-10T05:26:27.599Z,21.44
2018-06-10T05:27:27.611Z,21.35
2018-06-10T05:28:27.614Z,21.42
2018-06-10T05:29:27.617Z,21.50
2018-06-10T05:30:27.633Z,21.46
2018-06-10T05:31:27.642Z,21.46
2018-06-10T05:32:27.645Z,21.52
2018-06-10T05:33:27.649Z,21.47
2018-06-10T05:34:27.662Z,21.59
2018-06-10T05:35:27.666Z,21.62
2018-06-10T05:36:27.671Z,21.68
2018-06-10T05:37:27.681Z,21.71
2018-06-10T05:38:27.688Z,21.65
2018-06-10T05:39:27.702Z,21.72
2018-06-10T05:40:27.697Z,21.74
2018-06-10T05:41:27.711Z,21.80
2018-06-10T05:42:27.714Z,21.83
2018-06-10T05:43:27.727Z,21.96
2018-06-10T05:44:27.738Z,21.86
2018-06-10T05:45:27.738Z,21.91
2018-06-10T05:46:27.744Z,21.83
2018-06-10T05:47:27.760Z,21.91
2018-06-10T05:48:27.764Z,21.90
2018-06-10T05:49:27.774Z,22.05
2018-06-10T05:50:27.775Z,22.03
2018-06-10T05:51:27.785Z,22.03
2018-06-10T05:52:27.790Z,22.02
2018-06-10T05:53:27.804Z,22.03
2018-06-10T05:54:27.808Z,22.07
2018-06-10T05:55:27.813Z,22.06
2018-06-10T05:56:27.820Z,22.10
2018-06-10T05:57:27.828Z,22.10
2018-06-10T05:58:27.839Z,22.20
2018-06-10T05:59:27.849Z,22.21
2018-06-10T06:00:27.853Z,22.24
2018-06-10T06:01:27.859Z,22.27
2018-06-10T06:02:27.875Z,22.09
2018-06-10T06:03:27.875Z,22.12
2018-06-10T06:04:27.881Z,22.10
2018-06-10T06:05:27.894Z,22.05
2018-06-10T06:06:27.911Z,22.14
2018-06-10T06:07:27.906Z,22.17
2018-06-10T06:08:27.919Z,22.21
2018-06-10T06:09:27.920Z,22.33
2018-06-10T06:10:27.930Z,22.31
2018-06-10T06:11:27.948Z,22.42
2018-06-10T06:12:27.945Z,22.43
2018-06-10T06:13:28.091Z,22.42
2018-06-10T06:14:27.960Z,22.40
2018-06-10T06:15:27.973Z,22.35
2018-06-10T06:16:27.974Z,22.39
2018-06-10T06:17:27.986Z,22.45
2018-06-10T06:18:27.994Z,22.51
2018-06-10T06:19:28.001Z,22.60
2018-06-10T06:20:28.010Z,22.52
2018-06-10T06:21:28.017Z,22.40
2018-06-10T06:22:28.030Z,22.43
2018-06-10T06:23:28.037Z,22.55
2018-06-10T06:24:28.039Z,22.52
2018-06-10T06:25:28.054Z,22.58
2018-06-10T06:26:28.056Z,22.64
2018-06-10T06:27:28.119Z,22.65
2018-06-10T06:28:28.072Z,22.67
2018-06-10T06:29:28.078Z,22.79
2018-06-10T06:30:28.086Z,22.79
2018-06-10T06:31:28.097Z,22.83
2018-06-10T06:32:28.105Z,22.83
2018-06-10T06:33:28.113Z,22.85
2018-06-10T06:34:28.119Z,22.86
2018-06-10T06:35:28.137Z,22.85
2018-06-10T06:36:28.135Z,22.86
2018-06-10T06:37:28.145Z,22.85
2018-06-10T06:38:28.152Z,22.98
2018-06-10T06:39:28.211Z,23.01
2018-06-10T06:40:28.174Z,23.04
2018-06-10T06:41:28.177Z,22.97
2018-06-10T06:42:28.188Z,23.00
2018-06-10T06:43:28.193Z,22.97
2018-06-10T06:44:28.199Z,23.01
2018-06-10T06:45:28.209Z,23.00
2018-06-10T06:46:28.217Z,23.00
2018-06-10T06:47:28.225Z,23.04
2018-06-10T06:48:28.235Z,23.09
2018-06-10T06:49:28.252Z,23.02
2018-06-10T06:50:28.252Z,23.13
2018-06-10T06:51:28.261Z,23.17
2018-06-10T06:52:28.316Z,23.12
2018-06-10T06:53:28.283Z,23.07
2018-06-10T06:54:28.298Z,23.09
2018-06-10T06:55:28.293Z,23.15
2018-06-10T06:56:28.299Z,23.28
2018-06-10T06:57:28.311Z,23.28
2018-06-10T06:58:28.318Z,23.28
2018-06-10T06:59:28.327Z,23.32
2018-06-10T07:00:28.342Z,23.28
2018-06-10T07:01:28.350Z,23.22
2018-06-10T07:02:28.353Z,23.09
2018-06-10T07:03:28.359Z,23.22
2018-06-10T07:04:28.368Z,23.23
2018-06-10T07:05:28.383Z,23.32
2018-06-10T07:06:28.393Z,23.46
2018-06-10T07:07:28.397Z,23.51
2018-06-10T07:08:28.407Z,23.57
2018-06-10T07:09:28.417Z,23.50
2018-06-10T07:10:28.424Z,23.53
2018-06-10T07:11:28.434Z,23.68
2018-06-10T07:12:28.438Z,23.70
2018-06-10T07:13:28.446Z,23.51
2018-06-10T07:14:28.457Z,23.39
2018-06-10T07:15:28.464Z,23.53
2018-06-10T07:16:28.478Z,23.54
2018-06-10T07:17:28.486Z,23.57
2018-06-10T07:18:28.501Z,23.48
2018-06-10T07:19:28.502Z,23.60
2018-06-10T07:20:28.512Z,23.55
2018-06-10T07:21:28.519Z,23.69
2018-06-10T07:22:28.529Z,23.88
2018-06-10T07:23:28.539Z,23.87
2018-06-10T07:24:28.548Z,23.78
2018-06-10T07:25:28.556Z,23.66
2018-06-10T07:26:28.568Z,23.68
2018-06-10T07:27:28.572Z,23.66
2018-06-10T07:28:28.580Z,23.79
2018-06-10T07:29:28.599Z,23.88
2018-06-10T07:30:28.651Z,23.83
2018-06-10T07:31:28.618Z,23.76
2018-06-10T07:32:28.616Z,23.83
2018-06-10T07:33:28.700Z,23.76
2018-06-10T07:34:28.647Z,23.80
2018-06-10T07:35:28.641Z,23.85
2018-06-10T07:36:28.651Z,23.87
2018-06-10T07:37:28.661Z,23.90
2018-06-10T07:38:28.670Z,23.76
2018-06-10T07:39:28.687Z,23.91
2018-06-10T07:40:28.731Z,23.91
2018-06-10T07:41:28.698Z,23.98
2018-06-10T07:42:28.707Z,23.90
2018-06-10T07:43:28.718Z,23.97
2018-06-10T07:44:28.722Z,23.87
2018-06-10T07:45:28.731Z,24.00
2018-06-10T07:46:28.741Z,23.95
2018-06-10T07:47:28.751Z,24.03
2018-06-10T07:48:28.815Z,23.98
2018-06-10T07:49:28.772Z,24.10
2018-06-10T07:50:28.779Z,24.09
2018-06-10T07:51:28.790Z,24.12
2018-06-10T07:52:28.798Z,24.08
2018-06-10T07:53:28.804Z,24.21
2018-06-10T07:54:28.821Z,24.21
2018-06-10T07:55:28.830Z,24.25
2018-06-10T07:56:28.838Z,24.30
2018-06-10T07:57:28.844Z,24.24
2018-06-10T07:58:28.853Z,24.28
2018-06-10T07:59:28.863Z,24.37
2018-06-10T08:00:28.878Z,24.30
2018-06-10T08:01:28.887Z,24.39
2018-06-10T08:02:28.892Z,24.46
2018-06-10T08:03:28.899Z,24.47
2018-06-10T08:04:28.910Z,24.43
2018-06-10T08:05:28.972Z,24.42
2018-06-10T08:06:28.928Z,24.32
2018-06-10T08:07:28.943Z,24.27
2018-06-10T08:08:28.948Z,24.31
2018-06-10T08:09:28.961Z,24.31
2018-06-10T08:10:28.971Z,24.50
2018-06-10T08:11:28.981Z,24.60
2018-06-10T08:12:28.995Z,24.47
2018-06-10T08:13:28.997Z,24.67
2018-06-10T08:14:29.005Z,24.43
2018-06-10T08:15:29.021Z,24.47
2018-06-10T08:16:29.025Z,24.43
2018-06-10T08:17:29.033Z,24.49
2018-06-10T08:18:29.045Z,24.49
2018-06-10T08:19:29.055Z,24.62
2018-06-10T08:20:29.062Z,24.52
2018-06-10T08:21:29.081Z,24.68
2018-06-10T08:22:29.085Z,24.77
2018-06-10T08:23:29.099Z,24.67
2018-06-10T08:24:29.101Z,24.76
2018-06-10T08:25:29.111Z,24.76
2018-06-10T08:26:29.129Z,24.68
2018-06-10T08:27:29.142Z,24.62
2018-06-10T08:28:29.143Z,24.49
2018-06-10T08:29:29.154Z,24.64
2018-06-10T08:30:29.165Z,24.62
2018-06-10T08:31:29.178Z,24.80
2018-06-10T08:32:29.182Z,25.03
2018-06-10T08:33:29.203Z,24.88
2018-06-10T08:34:29.212Z,25.00
2018-06-10T08:35:29.216Z,24.91
2018-06-10T08:36:29.218Z,24.90
2018-06-10T08:37:29.245Z,24.96
2018-06-10T08:38:29.246Z,24.95
2018-06-10T08:39:29.257Z,24.81
2018-06-10T08:40:29.265Z,24.87
2018-06-10T08:41:29.274Z,24.93
2018-06-10T08:42:29.278Z,25.02
2018-06-10T08:43:29.290Z,25.09
2018-06-10T08:44:29.301Z,25.10
2018-06-10T08:45:29.309Z,25.18
2018-06-10T08:46:29.324Z,24.99
2018-06-10T08:47:29.328Z,25.08
2018-06-10T08:48:29.340Z,24.96
2018-06-10T08:49:29.349Z,24.80
2018-06-10T08:50:29.368Z,24.85
2018-06-10T08:51:29.369Z,24.81
2018-06-10T08:52:29.379Z,24.91
2018-06-10T08:53:29.400Z,24.87
2018-06-10T08:54:29.402Z,25.00
2018-06-10T08:55:29.412Z,24.85
2018-06-10T08:56:29.422Z,24.99
2018-06-10T08:57:29.430Z,25.08
2018-06-10T08:58:29.439Z,25.14
2018-06-10T08:59:29.454Z,25.17
2018-06-10T09:00:29.457Z,25.21
2018-06-10T09:01:29.471Z,25.05
2018-06-10T09:02:29.488Z,25.05
2018-06-10T09:03:29.490Z,25.23
2018-06-10T09:04:29.500Z,25.09
2018-06-10T09:05:29.512Z,25.13
2018-06-10T09:06:29.525Z,25.14
2018-06-10T09:07:29.537Z,25.33
2018-06-10T09:08:29.606Z,25.45
2018-06-10T09:09:29.555Z,25.52
2018-06-10T09:10:29.570Z,25.45
2018-06-10T09:11:29.577Z,25.50
2018-06-10T09:12:29.586Z,25.45
2018-06-10T09:13:29.593Z,25.33
2018-06-10T09:14:29.608Z,25.28
2018-06-10T09:15:29.619Z,25.40
2018-06-10T09:16:29.628Z,25.46
2018-06-10T09:17:29.636Z,25.38
2018-06-10T09:18:29.648Z,25.52
2018-06-10T09:19:29.656Z,25.52
2018-06-10T09:20:29.666Z,25.55
2018-06-10T09:21:29.675Z,25.54
2018-06-10T09:22:29.691Z,25.64
2018-06-10T09:23:29.696Z,25.67
2018-06-10T09:24:29.708Z,25.65
2018-06-10T09:25:29.718Z,25.80
2018-06-10T09:26:29.726Z,25.75
2018-06-10T09:27:29.740Z,25.82
2018-06-10T09:28:29.767Z,25.85
2018-06-10T09:29:29.760Z,25.87
2018-06-10T09:30:29.774Z,25.83
2018-06-10T09:31:29.788Z,25.72
2018-06-10T09:32:29.795Z,25.83
2018-06-10T09:33:29.807Z,25.77
2018-06-10T09:34:29.817Z,25.79
2018-06-10T09:35:29.845Z,25.97
2018-06-10T09:36:29.835Z,25.88
2018-06-10T09:37:29.852Z,25.85
2018-06-10T09:38:29.859Z,25.95
2018-06-10T09:39:29.866Z,25.95
2018-06-10T09:40:29.882Z,25.95
2018-06-10T09:41:29.893Z,25.98
2018-06-10T09:42:29.899Z,26.12
2018-06-10T09:43:29.912Z,26.17
2018-06-10T09:44:29.925Z,26.23
2018-06-10T09:45:29.932Z,26.09
2018-06-10T09:46:29.943Z,26.29
2018-06-10T09:47:29.959Z,26.32
2018-06-10T09:48:29.971Z,26.25
2018-06-10T09:49:29.975Z,26.02
2018-06-10T09:50:29.989Z,26.05
2018-06-10T09:51:29.998Z,26.23
2018-06-10T09:52:30.015Z,26.26
2018-06-10T09:53:30.030Z,26.39
2018-06-10T09:54:30.034Z,26.54
2018-06-10T09:55:30.221Z,26.60
2018-06-10T09:56:30.052Z,26.62
2018-06-10T09:57:30.071Z,26.67
2018-06-10T09:58:30.081Z,26.72
2018-06-10T09:59:30.085Z,26.66
2018-06-10T10:00:30.098Z,26.67
2018-06-10T10:01:30.109Z,26.54
2018-06-10T10:02:30.119Z,26.51
2018-06-10T10:03:30.135Z,26.32
2018-06-10T10:04:30.153Z,26.58
2018-06-10T10:05:30.156Z,26.51
2018-06-10T10:06:30.169Z,26.48
2018-06-10T10:07:30.175Z,26.51
2018-06-10T10:08:30.187Z,26.62
2018-06-10T10:09:30.196Z,26.63
2018-06-10T10:10:30.209Z,26.65
2018-06-10T10:11:30.224Z,26.67
2018-06-10T10:12:30.236Z,26.81
2018-06-10T10:13:30.258Z,26.87
2018-06-10T10:14:30.269Z,26.97
2018-06-10T10:15:30.268Z,27.04
2018-06-10T10:16:30.287Z,27.10
2018-06-10T10:17:30.300Z,27.09
2018-06-10T10:18:30.313Z,27.09
2018-06-10T10:19:30.314Z,27.32
2018-06-10T10:20:30.328Z,27.02
2018-06-10T10:21:30.336Z,27.25
2018-06-10T10:22:30.353Z,27.29
2018-06-10T10:23:30.365Z,27.10
2018-06-10T10:24:30.370Z,27.13
2018-06-10T10:25:30.439Z,27.14
2018-06-10T10:26:30.393Z,27.09
2018-06-10T10:27:30.404Z,27.04
2018-06-10T10:28:30.419Z,27.03
2018-06-10T10:29:30.429Z,26.80
2018-06-10T10:30:30.441Z,26.51
2018-06-10T10:31:30.453Z,26.66
2018-06-10T10:32:30.463Z,26.69
2018-06-10T10:33:30.476Z,26.85
2018-06-10T10:34:30.490Z,26.95
2018-06-10T10:35:30.499Z,26.81
2018-06-10T10:36:30.516Z,26.84
2018-06-10T10:37:30.523Z,26.91
2018-06-10T10:38:30.557Z,27.03
2018-06-10T10:39:30.551Z,27.14
2018-06-10T10:40:30.559Z,27.12
2018-06-10T10:41:30.570Z,27.25
2018-06-10T10:42:30.577Z,27.22
2018-06-10T10:43:30.594Z,27.17
2018-06-10T10:44:30.605Z,26.97
2018-06-10T10:45:30.616Z,27.04
2018-06-10T10:46:30.625Z,27.03
2018-06-10T10:47:30.639Z,27.09
2018-06-10T10:48:30.658Z,27.19
2018-06-10T10:49:30.659Z,27.10
2018-06-10T10:50:30.678Z,27.29
2018-06-10T10:51:30.687Z,27.25
2018-06-10T10:52:30.712Z,27.37
2018-06-10T10:53:30.717Z,27.44
2018-06-10T10:54:30.717Z,27.62
2018-06-10T10:55:30.735Z,27.41
2018-06-10T10:56:30.742Z,27.51
2018-06-10T10:57:30.756Z,27.47
2018-06-10T10:58:30.768Z,27.21
2018-06-10T10:59:30.782Z,27.27
2018-06-10T11:00:30.794Z,27.31
2018-06-10T11:01:30.803Z,27.19
2018-06-10T11:02:30.818Z,27.09
2018-06-10T11:03:30.833Z,27.13
2018-06-10T11:04:30.838Z,27.28
2018-06-10T11:05:30.849Z,27.24
2018-06-10T11:06:30.862Z,27.31
2018-06-10T11:07:30.877Z,27.51
2018-06-10T11:08:30.892Z,27.66
2018-06-10T11:09:30.904Z,27.62
2018-06-10T11:10:30.910Z,27.69
2018-06-10T11:11:30.921Z,27.74
2018-06-10T11:12:30.935Z,27.79
2018-06-10T11:13:30.955Z,27.82
2018-06-10T11:14:30.957Z,27.69
2018-06-10T11:15:30.968Z,27.72
2018-06-10T11:16:30.984Z,27.79
2018-06-10T11:17:30.993Z,27.81
2018-06-10T11:18:31.010Z,27.85
2018-06-10T11:19:31.023Z,27.81
2018-06-10T11:20:31.031Z,27.62
2018-06-10T11:21:31.049Z,27.66
2018-06-10T11:22:31.054Z,27.82
2018-06-10T11:23:31.081Z,28.02
2018-06-10T11:24:31.082Z,27.85
2018-06-10T11:25:31.091Z,27.81
2018-06-10T11:26:31.103Z,27.87
2018-06-10T11:27:31.119Z,27.77
2018-06-10T11:28:31.130Z,27.82
2018-06-10T11:29:31.138Z,27.97
2018-06-10T11:30:31.154Z,28.09
2018-06-10T11:31:31.162Z,28.22
2018-06-10T11:32:31.182Z,28.24
2018-06-10T11:33:31.189Z,28.27
2018-06-10T11:34:31.211Z,28.21
2018-06-10T11:35:31.219Z,28.22
2018-06-10T11:36:31.228Z,28.07
2018-06-10T11:37:31.243Z,28.02
2018-06-10T11:38:31.249Z,28.02
2018-06-10T11:39:31.268Z,27.97
2018-06-10T11:40:31.277Z,28.04
2018-06-10T11:41:31.289Z,28.22
2018-06-10T11:42:31.450Z,28.02
2018-06-10T11:43:31.314Z,27.92
2018-06-10T11:44:31.327Z,27.77
2018-06-10T11:45:31.338Z,27.94
2018-06-10T11:46:31.350Z,28.24
2018-06-10T11:47:31.364Z,28.11
2018-06-10T11:48:31.375Z,28.25
2018-06-10T11:49:31.385Z,28.27
2018-06-10T11:50:31.442Z,28.11
2018-06-10T11:51:31.413Z,28.12
2018-06-10T11:52:31.424Z,28.04
2018-06-10T11:53:31.441Z,28.03
2018-06-10T11:54:31.451Z,28.25
2018-06-10T11:55:31.462Z,28.34
2018-06-10T11:56:31.474Z,28.44
2018-06-10T11:57:31.490Z,28.34
2018-06-10T11:58:31.502Z,28.41
2018-06-10T11:59:31.512Z,28.43
2018-06-10T12:00:31.524Z,28.41
2018-06-10T12:01:31.540Z,28.52
2018-06-10T12:02:31.550Z,28.61
2018-06-10T12:03:31.566Z,28.55
2018-06-10T12:04:31.573Z,28.51
2018-06-10T12:05:31.587Z,28.56
2018-06-10T12:06:31.602Z,28.30
2018-06-10T12:07:31.613Z,28.25
2018-06-10T12:08:31.636Z,28.24
2018-06-10T12:09:31.638Z,28.30
2018-06-10T12:10:31.704Z,28.40
2018-06-10T12:11:31.664Z,28.52
2018-06-10T12:12:31.675Z,28.39
2018-06-10T12:13:31.690Z,28.34
2018-06-10T12:14:31.702Z,27.92
2018-06-10T12:15:31.714Z,27.93
2018-06-10T12:16:31.760Z,28.03
2018-06-10T12:17:31.742Z,28.19
2018-06-10T12:18:31.751Z,28.19
2018-06-10T12:19:31.767Z,28.27
2018-06-10T12:20:31.781Z,28.30
2018-06-10T12:21:31.792Z,28.40
2018-06-10T12:22:31.856Z,28.19
2018-06-10T12:23:31.817Z,28.21
2018-06-10T12:24:31.830Z,28.40
2018-06-10T12:25:31.842Z,28.41
2018-06-10T12:26:31.857Z,28.48
2018-06-10T12:27:31.868Z,28.22
2018-06-10T12:28:31.878Z,28.07
2018-06-10T12:29:31.895Z,28.33
2018-06-10T12:30:31.905Z,28.52
2018-06-10T12:31:31.922Z,28.56
2018-06-10T12:32:31.930Z,28.64
2018-06-10T12:33:31.948Z,28.64
2018-06-10T12:34:31.968Z,28.66
2018-06-10T12:35:31.978Z,28.66
2018-06-10T12:36:31.983Z,28.52
2018-06-10T12:37:31.999Z,28.49
2018-06-10T12:38:32.009Z,28.54
2018-06-10T12:39:32.023Z,28.52
2018-06-10T12:40:32.036Z,28.58
2018-06-10T12:41:32.125Z,28.71
2018-06-10T12:42:32.071Z,28.78
2018-06-10T12:43:32.099Z,28.81
2018-06-10T12:44:32.084Z,28.85
2018-06-10T12:45:32.098Z,28.81
2018-06-10T12:46:32.113Z,28.46
2018-06-10T12:47:32.127Z,28.61
2018-06-10T12:48:32.138Z,28.76
2018-06-10T12:49:32.153Z,28.89
2018-06-10T12:50:32.170Z,28.76
2018-06-10T12:51:32.178Z,28.71
2018-06-10T12:52:32.189Z,28.80